createdAt,value
2023-02-06T00:00:47.864Z,23.50
2023-02-06T00:03:15.502Z,23.50
2023-02-06T00:05:43.347Z,23.50
2023-02-06T00:08:10.946Z,23.40
2023-02-06T00:10:39.375Z,23.50
2023-02-06T00:13:06.884Z,23.40
2023-02-06T00:15:35.068Z,23.50
2023-02-06T00:18:02.845Z,23.40
2023-02-06T00:20:30.420Z,23.50
2023-02-06T00:22:57.933Z,23.50
2023-02-06T00:25:25.531Z,23.50
2023-02-06T00:27:53.056Z,23.60
2023-02-06T00:30:20.656Z,23.50
2023-02-06T00:32:48.364Z,23.50
2023-02-06T00:35:16.264Z,23.50
2023-02-06T00:37:44.301Z,23.60
2023-02-06T00:40:13.387Z,23.60
2023-02-06T00:42:41.260Z,23.60
2023-02-06T00:45:09.324Z,23.60
2023-02-06T00:47:37.071Z,23.70
2023-02-06T00:50:05.267Z,23.70
2023-02-06T00:52:33.669Z,23.70
2023-02-06T00:55:01.710Z,23.80
2023-02-06T00:57:30.611Z,23.80
2023-02-06T00:59:58.203Z,23.90
2023-02-06T01:02:26.123Z,23.90
2023-02-06T01:04:54.486Z,24.00
2023-02-06T01:07:22.728Z,24.00
2023-02-06T01:09:50.424Z,24.00
2023-02-06T01:12:18.261Z,24.00
2023-02-06T01:14:45.755Z,24.00
2023-02-06T01:17:17.471Z,24.00
2023-02-06T01:19:45.053Z,24.10
2023-02-06T01:22:12.675Z,24.10
2023-02-06T01:24:40.460Z,24.10
2023-02-06T01:27:08.308Z,24.10
2023-02-06T01:29:36.207Z,24.20
2023-02-06T01:32:04.727Z,24.20
2023-02-06T01:34:32.396Z,24.30
2023-02-06T01:37:01.617Z,24.40
2023-02-06T01:39:29.194Z,24.40
2023-02-06T01:41:59.769Z,24.50
2023-02-06T01:44:27.844Z,24.60
2023-02-06T01:46:57.205Z,24.60
2023-02-06T01:49:31.951Z,24.60
2023-02-06T01:52:18.960Z,24.70
2023-02-06T01:54:48.505Z,24.80
2023-02-06T01:57:19.024Z,24.80
2023-02-06T01:59:50.061Z,24.90
2023-02-06T02:02:20.436Z,25.00
2023-02-06T02:04:49.083Z,25.00
2023-02-06T02:07:20.004Z,25.10
2023-02-06T02:09:48.886Z,25.20
2023-02-06T02:12:17.663Z,25.20
2023-02-06T02:14:46.325Z,25.30
2023-02-06T02:17:21.220Z,25.40
2023-02-06T02:20:07.379Z,25.40
2023-02-06T02:22:47.354Z,25.50
2023-02-06T02:28:31.575Z,25.60
2023-02-06T02:31:29.343Z,25.70
2023-02-06T02:34:16.228Z,25.80
2023-02-06T02:37:00.161Z,25.80
2023-02-06T02:40:06.181Z,25.90
2023-02-06T02:42:41.519Z,26.00
2023-02-06T02:45:09.076Z,26.10
2023-02-06T02:47:42.684Z,26.20
2023-02-06T02:50:11.399Z,26.30
2023-02-06T02:52:38.998Z,26.40
2023-02-06T02:55:22.579Z,26.50
2023-02-06T02:57:56.974Z,26.50
2023-02-06T03:02:56.122Z,26.60
2023-02-06T03:05:25.924Z,26.70
2023-02-06T03:08:14.814Z,26.70
2023-02-06T03:11:02.405Z,26.80
2023-02-06T03:13:36.550Z,26.80
2023-02-06T03:16:23.865Z,26.90
2023-02-06T03:18:55.347Z,26.90
2023-02-06T03:21:24.266Z,27.00
2023-02-06T03:23:56.474Z,27.10
2023-02-06T03:26:27.875Z,27.20
2023-02-06T03:28:58.748Z,27.30
2023-02-06T03:31:34.271Z,27.30
2023-02-06T03:34:06.044Z,27.40
2023-02-06T03:36:33.850Z,27.50
2023-02-06T03:39:01.555Z,27.60
2023-02-06T03:41:32.602Z,27.60
2023-02-06T03:44:00.751Z,27.70
2023-02-06T03:46:29.238Z,27.90
2023-02-06T03:48:58.999Z,28.00
2023-02-06T03:51:29.478Z,28.10
2023-02-06T03:54:15.634Z,28.20
2023-02-06T03:56:54.986Z,28.20
2023-02-06T03:59:23.730Z,28.20
2023-02-06T04:01:54.966Z,28.30
2023-02-06T04:04:36.651Z,28.30
2023-02-06T04:07:08.632Z,28.30
2023-02-06T04:09:37.201Z,28.40
2023-02-06T04:12:09.216Z,28.50
2023-02-06T04:14:39.747Z,28.60
2023-02-06T04:17:08.681Z,28.60
2023-02-06T04:19:39.459Z,28.70
2023-02-06T04:22:09.103Z,28.70
2023-02-06T04:24:46.347Z,28.80
2023-02-06T04:27:16.554Z,29.00
2023-02-06T04:29:44.953Z,29.00
2023-02-06T04:32:25.040Z,29.10
2023-02-06T04:34:52.998Z,29.10
2023-02-06T04:37:20.509Z,29.20
2023-02-06T04:39:48.134Z,29.20
2023-02-06T04:42:15.796Z,29.30
2023-02-06T04:44:43.452Z,29.30
2023-02-06T04:47:11.104Z,29.40
2023-02-06T04:49:38.662Z,29.40
2023-02-06T04:52:07.096Z,29.40
2023-02-06T04:54:34.813Z,29.40
2023-02-06T04:57:04.949Z,29.40
2023-02-06T04:59:34.040Z,29.50
2023-02-06T05:02:02.236Z,29.60
2023-02-06T05:04:30.514Z,29.60
2023-02-06T05:06:58.102Z,29.60
2023-02-06T05:09:26.034Z,29.70
2023-02-06T05:11:57.202Z,29.70
2023-02-06T05:14:24.893Z,29.70
2023-02-06T05:16:52.928Z,29.70
2023-02-06T05:19:20.433Z,29.70
2023-02-06T05:21:48.090Z,29.70
2023-02-06T05:24:15.617Z,29.70
2023-02-06T05:26:44.315Z,29.80
2023-02-06T05:29:11.800Z,29.80
2023-02-06T05:31:45.274Z,29.80
2023-02-06T05:34:12.928Z,29.80
2023-02-06T05:36:40.735Z,29.90
2023-02-06T05:39:08.296Z,29.90
2023-02-06T05:41:37.386Z,30.00
2023-02-06T05:44:05.018Z,30.00
2023-02-06T05:46:33.331Z,30.00
2023-02-06T05:49:01.518Z,30.00
2023-02-06T05:51:29.208Z,30.00
2023-02-06T05:53:57.017Z,30.10
2023-02-06T05:56:24.760Z,30.20
2023-02-06T05:58:53.089Z,30.20
2023-02-06T06:01:21.643Z,30.20
2023-02-06T06:03:49.523Z,30.30
2023-02-06T06:06:17.100Z,30.30
2023-02-06T06:08:44.980Z,30.40
2023-02-06T06:11:15.789Z,30.40
2023-02-06T06:13:43.272Z,30.40
2023-02-06T06:16:11.681Z,30.40
2023-02-06T06:18:40.369Z,30.50
2023-02-06T06:21:08.834Z,30.50
2023-02-06T06:23:36.396Z,30.40
2023-02-06T06:26:04.145Z,30.40
2023-02-06T06:28:35.411Z,30.40
2023-02-06T06:31:05.762Z,30.40
2023-02-06T06:33:33.829Z,30.50
2023-02-06T06:36:01.524Z,30.50
2023-02-06T06:38:29.232Z,30.60
2023-02-06T06:40:57.640Z,30.60
2023-02-06T06:43:25.189Z,30.70
2023-02-06T06:45:52.735Z,30.70
2023-02-06T06:48:21.538Z,30.80
2023-02-06T06:50:52.895Z,30.80
2023-02-06T06:53:20.543Z,30.90
2023-02-06T06:56:00.140Z,30.90
2023-02-06T07:01:21.694Z,31.10
2023-02-06T07:03:52.559Z,31.10
2023-02-06T07:06:20.554Z,31.10
2023-02-06T07:08:49.770Z,31.10
2023-02-06T07:11:18.760Z,31.20
2023-02-06T07:13:49.228Z,31.20
2023-02-06T07:16:16.923Z,31.30
2023-02-06T07:18:45.487Z,31.30
2023-02-06T07:21:17.163Z,31.30
2023-02-06T07:23:47.893Z,31.30
2023-02-06T07:26:16.787Z,31.30
2023-02-06T07:28:45.298Z,31.20
2023-02-06T07:31:14.071Z,31.30
2023-02-06T07:33:49.586Z,31.30
2023-02-06T07:36:25.756Z,31.20
2023-02-06T07:38:58.966Z,31.30
2023-02-06T07:41:29.682Z,31.30
2023-02-06T07:43:58.784Z,31.30
2023-02-06T07:46:31.041Z,31.30
2023-02-06T07:48:58.668Z,31.40
2023-02-06T07:51:28.586Z,31.40
2023-02-06T07:53:57.055Z,31.40
2023-02-06T07:56:25.654Z,31.40
2023-02-06T07:58:53.970Z,31.40
2023-02-06T08:01:23.192Z,31.40
2023-02-06T08:03:52.224Z,31.40
2023-02-06T08:06:22.168Z,31.50
2023-02-06T08:08:51.359Z,31.50
2023-02-06T08:11:20.013Z,31.60
2023-02-06T08:13:48.231Z,31.70
2023-02-06T08:16:20.247Z,31.70
2023-02-06T08:18:51.115Z,31.70
2023-02-06T08:21:22.500Z,31.70
2023-02-06T08:23:57.410Z,31.70
2023-02-06T08:26:26.107Z,31.80
2023-02-06T08:28:58.417Z,31.80
2023-02-06T08:31:31.351Z,31.90
2023-02-06T08:33:59.089Z,31.90
2023-02-06T08:36:27.332Z,31.90
2023-02-06T08:38:57.583Z,31.90
2023-02-06T08:41:27.280Z,31.90
2023-02-06T08:43:56.333Z,31.90
2023-02-06T08:46:27.325Z,31.90
2023-02-06T08:48:56.752Z,31.90
2023-02-06T08:51:28.167Z,31.90
2023-02-06T08:53:59.506Z,31.90
2023-02-06T08:56:28.633Z,31.90
2023-02-06T08:58:58.008Z,31.90
2023-02-06T09:01:26.395Z,32.00
2023-02-06T09:03:58.743Z,32.00
2023-02-06T09:06:27.153Z,32.00
2023-02-06T09:08:58.624Z,31.90
2023-02-06T09:11:26.835Z,31.90
2023-02-06T09:13:55.915Z,31.90
2023-02-06T09:16:24.198Z,31.90
2023-02-06T09:18:54.442Z,31.90
2023-02-06T09:21:28.473Z,31.90
2023-02-06T09:24:00.420Z,31.90
2023-02-06T09:26:38.883Z,31.80
2023-02-06T09:29:10.786Z,31.80
2023-02-06T09:31:40.088Z,31.80
2023-02-06T09:34:08.174Z,31.70
2023-02-06T09:36:37.057Z,31.80
2023-02-06T09:39:06.382Z,31.80
2023-02-06T09:41:40.900Z,31.70
2023-02-06T09:44:13.804Z,31.70
2023-02-06T09:46:50.195Z,31.70
2023-02-06T09:49:22.705Z,31.70
2023-02-06T09:52:03.137Z,31.70
2023-02-06T09:54:34.689Z,31.70
2023-02-06T09:57:21.362Z,31.70
2023-02-06T09:59:52.154Z,31.60
2023-02-06T10:02:40.176Z,31.70
2023-02-06T10:05:16.835Z,31.60
2023-02-06T10:08:01.697Z,31.50
2023-02-06T10:10:39.819Z,31.50
2023-02-06T10:13:14.199Z,31.50
2023-02-06T10:15:45.624Z,31.40
2023-02-06T10:18:20.567Z,31.40
2023-02-06T10:20:52.743Z,31.30
2023-02-06T10:23:30.123Z,31.30
2023-02-06T10:26:13.687Z,31.20
2023-02-06T10:28:41.332Z,31.20
2023-02-06T10:31:16.513Z,31.10
2023-02-06T10:34:03.931Z,31.10
2023-02-06T10:36:40.594Z,31.10
2023-02-06T10:39:26.581Z,31.00
2023-02-06T10:42:12.878Z,30.90
2023-02-06T10:44:52.895Z,30.90
2023-02-06T10:47:21.507Z,30.80
2023-02-06T10:49:52.937Z,30.80
2023-02-06T10:52:29.043Z,30.70
2023-02-06T10:55:01.133Z,30.70
2023-02-06T10:57:28.845Z,30.60
2023-02-06T11:00:01.076Z,30.60
2023-02-06T11:02:39.494Z,30.50
2023-02-06T11:05:20.241Z,30.40
2023-02-06T11:07:52.614Z,30.40
2023-02-06T11:10:21.715Z,30.30
2023-02-06T11:13:09.304Z,30.30
2023-02-06T11:15:40.299Z,30.20
2023-02-06T11:18:11.707Z,30.20
2023-02-06T11:20:42.522Z,30.20
2023-02-06T11:23:24.606Z,30.10
2023-02-06T11:26:14.525Z,30.10
2023-02-06T11:28:50.757Z,30.00
2023-02-06T11:31:34.611Z,30.00
2023-02-06T11:34:02.233Z,29.90
2023-02-06T11:36:32.272Z,29.80
2023-02-06T11:39:01.932Z,29.80
2023-02-06T11:41:30.356Z,29.70
2023-02-06T11:44:06.732Z,29.70
2023-02-06T11:46:39.028Z,29.60
2023-02-06T11:49:27.483Z,29.60
2023-02-06T11:52:01.360Z,29.60
2023-02-06T11:54:35.711Z,29.50
2023-02-06T11:57:18.907Z,29.50
2023-02-06T11:59:53.021Z,29.50
2023-02-06T12:02:28.230Z,29.40
2023-02-06T12:05:02.083Z,29.40
2023-02-06T12:07:34.798Z,29.40
2023-02-06T12:10:06.861Z,29.30
2023-02-06T12:12:37.020Z,29.30
2023-02-06T12:15:45.848Z,29.30
2023-02-06T12:18:17.304Z,29.30
2023-02-06T12:20:50.512Z,29.20
2023-02-06T12:23:34.199Z,29.20
2023-02-06T12:26:03.077Z,29.20
2023-02-06T12:28:30.544Z,29.20
2023-02-06T12:31:09.570Z,29.20
2023-02-06T12:33:39.800Z,29.20
2023-02-06T12:36:12.372Z,29.10
2023-02-06T12:38:52.066Z,29.10
2023-02-06T12:41:25.641Z,29.10
2023-02-06T12:44:02.061Z,29.00
2023-02-06T12:46:30.208Z,29.00
2023-02-06T12:48:58.460Z,29.00
2023-02-06T12:51:32.915Z,28.90
2023-02-06T12:54:02.719Z,28.90
2023-02-06T12:56:40.681Z,28.90
2023-02-06T12:59:11.204Z,28.80
2023-02-06T13:01:45.027Z,28.80
2023-02-06T13:04:24.580Z,28.80
2023-02-06T13:07:10.031Z,28.70
2023-02-06T13:09:41.789Z,28.70
2023-02-06T13:15:05.160Z,28.60
2023-02-06T13:17:34.913Z,28.60
2023-02-06T13:20:05.587Z,28.60
2023-02-06T13:22:41.528Z,28.50
2023-02-06T13:25:30.899Z,28.50
2023-02-06T13:28:02.570Z,28.40
2023-02-06T13:30:30.379Z,28.40
2023-02-06T13:33:18.455Z,28.40
2023-02-06T13:36:04.910Z,28.40
2023-02-06T13:38:35.404Z,28.40
2023-02-06T13:41:23.076Z,28.30
2023-02-06T13:44:12.243Z,28.40
2023-02-06T13:46:42.816Z,28.30
2023-02-06T13:49:28.838Z,28.30
2023-02-06T13:52:13.254Z,28.30
2023-02-06T13:55:00.237Z,28.30
2023-02-06T13:57:37.036Z,28.30
2023-02-06T14:00:11.653Z,28.30
2023-02-06T14:02:40.605Z,28.30
2023-02-06T14:05:12.477Z,28.30
2023-02-06T14:07:49.349Z,28.30
2023-02-06T14:10:50.649Z,28.30
2023-02-06T14:13:24.608Z,28.20
2023-02-06T14:16:04.964Z,28.20
2023-02-06T14:18:39.993Z,28.20
2023-02-06T14:21:14.536Z,28.20
2023-02-06T14:24:00.839Z,28.10
2023-02-06T14:26:46.493Z,28.10
2023-02-06T14:29:20.162Z,28.00
2023-02-06T14:31:51.676Z,28.00
2023-02-06T14:34:21.982Z,28.00
2023-02-06T14:36:58.255Z,28.00
2023-02-06T14:39:44.858Z,27.90
2023-02-06T14:42:18.794Z,27.90
2023-02-06T14:44:50.776Z,27.90
2023-02-06T14:47:24.457Z,27.80
2023-02-06T14:49:53.557Z,27.80
2023-02-06T14:52:26.865Z,27.80
2023-02-06T14:54:54.808Z,27.80
2023-02-06T14:57:28.700Z,27.80
2023-02-06T14:59:59.045Z,27.70
2023-02-06T15:02:28.555Z,27.70
2023-02-06T15:04:56.414Z,27.70
2023-02-06T15:07:38.213Z,27.60
2023-02-06T15:10:11.516Z,27.60
2023-02-06T15:12:39.205Z,27.50
2023-02-06T15:15:36.245Z,27.50
2023-02-06T15:18:06.017Z,27.50
2023-02-06T15:20:44.971Z,27.50
2023-02-06T15:23:30.069Z,27.40
2023-02-06T15:26:16.331Z,27.40
2023-02-06T15:28:44.494Z,27.40
2023-02-06T15:31:19.426Z,27.40
2023-02-06T15:33:53.107Z,27.30
2023-02-06T15:36:26.054Z,27.30
2023-02-06T15:38:53.766Z,27.30
2023-02-06T15:41:21.334Z,27.30
2023-02-06T15:43:50.728Z,27.20
2023-02-06T15:46:19.334Z,27.20
2023-02-06T15:48:55.035Z,27.20
2023-02-06T15:51:23.530Z,27.20
2023-02-06T15:53:52.184Z,27.20
2023-02-06T15:56:26.192Z,27.20
2023-02-06T15:59:01.645Z,27.10
2023-02-06T16:01:34.946Z,27.10
2023-02-06T16:04:08.703Z,27.10
2023-02-06T16:06:36.500Z,27.10
2023-02-06T16:09:07.466Z,27.10
2023-02-06T16:11:50.952Z,27.10
2023-02-06T16:14:21.651Z,27.10
2023-02-06T16:17:02.871Z,27.10
2023-02-06T16:19:38.973Z,27.00
2023-02-06T16:22:14.540Z,27.00
2023-02-06T16:24:42.094Z,27.00
2023-02-06T16:27:17.272Z,27.00
2023-02-06T16:29:46.953Z,27.00
2023-02-06T16:32:19.380Z,27.00
2023-02-06T16:34:47.190Z,26.90
2023-02-06T16:37:19.487Z,26.90
2023-02-06T16:39:48.209Z,26.90
2023-02-06T16:42:35.408Z,26.80
2023-02-06T16:45:07.713Z,26.80
2023-02-06T16:47:36.274Z,26.80
2023-02-06T16:50:04.964Z,26.80
2023-02-06T16:52:33.630Z,26.80
2023-02-06T16:55:02.567Z,26.70
2023-02-06T16:57:36.592Z,26.70
2023-02-06T17:00:24.419Z,26.70
2023-02-06T17:02:52.457Z,26.60
2023-02-06T17:05:21.175Z,26.60
2023-02-06T17:07:53.576Z,26.60
2023-02-06T17:10:23.711Z,26.60
2023-02-06T17:12:52.579Z,26.60
2023-02-06T17:15:20.480Z,26.60
2023-02-06T17:17:48.015Z,26.60
2023-02-06T17:20:30.729Z,26.60
2023-02-06T17:22:58.390Z,26.60
2023-02-06T17:25:27.195Z,26.60
2023-02-06T17:27:55.854Z,26.50
2023-02-06T17:30:25.285Z,26.50
2023-02-06T17:32:53.028Z,26.50
2023-02-06T17:35:20.711Z,26.60
2023-02-06T17:37:49.424Z,26.60
2023-02-06T17:40:19.747Z,26.50
2023-02-06T17:42:47.893Z,26.50
2023-02-06T17:45:16.319Z,26.50
2023-02-06T17:47:43.949Z,26.50
2023-02-06T17:50:13.837Z,26.50
2023-02-06T17:52:41.878Z,26.40
2023-02-06T17:55:09.708Z,26.40
2023-02-06T17:57:40.673Z,26.40
2023-02-06T18:00:10.175Z,26.40
2023-02-06T18:02:38.175Z,26.40
2023-02-06T18:05:05.993Z,26.30
2023-02-06T18:07:33.508Z,26.30
2023-02-06T18:10:01.031Z,26.30
2023-02-06T18:12:31.452Z,26.30
2023-02-06T18:14:59.219Z,26.20
2023-02-06T18:17:26.743Z,26.30
2023-02-06T18:19:55.078Z,26.20
2023-02-06T18:22:22.940Z,26.20
2023-02-06T18:24:51.080Z,26.20
2023-02-06T18:27:19.338Z,26.10
2023-02-06T18:29:50.030Z,26.20
2023-02-06T18:32:18.794Z,26.10
2023-02-06T18:34:47.589Z,26.10
2023-02-06T18:37:15.287Z,26.10
2023-02-06T18:39:44.148Z,26.10
2023-02-06T18:42:30.981Z,26.10
2023-02-06T18:44:58.529Z,26.10
2023-02-06T18:47:26.916Z,26.10
2023-02-06T18:49:54.469Z,26.00
2023-02-06T18:52:23.251Z,26.00
2023-02-06T18:54:51.598Z,26.00
2023-02-06T18:57:19.109Z,26.00
2023-02-06T18:59:46.942Z,26.00
2023-02-06T19:02:14.638Z,26.00
2023-02-06T19:04:42.291Z,25.90
2023-02-06T19:07:11.858Z,26.00
2023-02-06T19:09:39.552Z,25.90
2023-02-06T19:12:07.301Z,26.00
2023-02-06T19:14:34.839Z,25.90
2023-02-06T19:17:02.449Z,25.90
2023-02-06T19:19:30.793Z,25.90
2023-02-06T19:21:59.351Z,25.90
2023-02-06T19:24:28.538Z,25.90
2023-02-06T19:26:57.320Z,25.90
2023-02-06T19:29:35.228Z,25.90
2023-02-06T19:32:05.262Z,25.80
2023-02-06T19:34:36.967Z,25.80
2023-02-06T19:37:06.018Z,25.80
2023-02-06T19:39:34.952Z,25.80
2023-02-06T19:42:04.560Z,25.80
2023-02-06T19:44:34.434Z,25.70
2023-02-06T19:47:02.062Z,25.80
2023-02-06T19:49:30.012Z,25.80
2023-02-06T19:51:58.403Z,25.80
2023-02-06T19:54:26.181Z,25.70
2023-02-06T19:56:53.992Z,25.80
2023-02-06T19:59:23.944Z,25.80
2023-02-06T20:01:52.727Z,25.80
2023-02-06T20:04:22.147Z,25.80
2023-02-06T20:06:51.368Z,25.80
2023-02-06T20:09:20.336Z,25.80
2023-02-06T20:11:49.284Z,25.80
2023-02-06T20:14:18.533Z,25.80
2023-02-06T20:16:48.072Z,25.80
2023-02-06T20:19:19.458Z,25.80
2023-02-06T20:21:49.411Z,25.90
2023-02-06T20:24:21.693Z,25.80
2023-02-06T20:26:50.748Z,25.90
2023-02-06T20:29:22.994Z,25.90
2023-02-06T20:31:51.205Z,25.90
2023-02-06T20:34:19.024Z,25.90
2023-02-06T20:36:47.614Z,25.80
2023-02-06T20:39:16.927Z,25.80
2023-02-06T20:41:46.501Z,25.80
2023-02-06T20:44:15.225Z,25.80
2023-02-06T20:46:43.792Z,25.80
2023-02-06T20:49:17.353Z,25.70
2023-02-06T20:51:44.899Z,25.70
2023-02-06T20:54:12.822Z,25.70
2023-02-06T20:56:40.906Z,25.60
2023-02-06T20:59:10.124Z,25.60
2023-02-06T21:01:37.734Z,25.60
2023-02-06T21:04:06.949Z,25.60
2023-02-06T21:06:35.279Z,25.50
2023-02-06T21:09:04.236Z,25.50
2023-02-06T21:11:34.112Z,25.40
2023-02-06T21:14:02.837Z,25.40
2023-02-06T21:16:31.021Z,25.40
2023-02-06T21:19:00.092Z,25.30
2023-02-06T21:21:28.750Z,25.30
2023-02-06T21:23:57.719Z,25.30
2023-02-06T21:26:26.059Z,25.30
2023-02-06T21:28:54.030Z,25.30
2023-02-06T21:31:23.816Z,25.30
2023-02-06T21:33:53.165Z,25.30
2023-02-06T21:36:21.343Z,25.30
2023-02-06T21:38:49.129Z,25.20
2023-02-06T21:41:18.805Z,25.20
2023-02-06T21:43:46.469Z,25.20
2023-02-06T21:46:14.271Z,25.20
2023-02-06T21:48:42.952Z,25.20
2023-02-06T21:51:17.344Z,25.20
2023-02-06T21:53:45.697Z,25.20
2023-02-06T21:56:17.990Z,25.20
2023-02-06T21:58:46.830Z,25.30
2023-02-06T22:01:15.381Z,25.30
2023-02-06T22:03:45.969Z,25.20
2023-02-06T22:06:13.989Z,25.20
2023-02-06T22:08:46.342Z,25.30
2023-02-06T22:11:19.261Z,25.20
2023-02-06T22:13:48.257Z,25.30
2023-02-06T22:16:18.604Z,25.30
2023-02-06T22:18:46.248Z,25.30
2023-02-06T22:21:15.138Z,25.30
2023-02-06T22:23:43.354Z,25.20
2023-02-06T22:26:11.736Z,25.20
2023-02-06T22:28:40.409Z,25.20
2023-02-06T22:31:11.006Z,25.20
2023-02-06T22:33:39.852Z,25.10
2023-02-06T22:36:08.811Z,25.10
2023-02-06T22:38:36.548Z,25.10
2023-02-06T22:41:05.489Z,25.00
2023-02-06T22:43:35.302Z,25.00
2023-02-06T22:46:03.787Z,25.00
2023-02-06T22:48:31.353Z,25.00
2023-02-06T22:51:04.584Z,25.00
2023-02-06T22:53:33.001Z,25.00
2023-02-06T22:56:20.974Z,25.00
2023-02-06T22:58:49.357Z,25.00
2023-02-06T23:01:18.114Z,25.00
2023-02-06T23:03:46.546Z,25.10
2023-02-06T23:06:15.913Z,25.10
2023-02-06T23:08:44.178Z,25.00
2023-02-06T23:11:12.507Z,25.00
2023-02-06T23:13:41.568Z,25.00
2023-02-06T23:16:10.499Z,25.00
2023-02-06T23:18:38.181Z,25.00
2023-02-06T23:21:07.779Z,25.00
2023-02-06T23:23:35.339Z,25.00
2023-02-06T23:26:03.811Z,25.00
2023-02-06T23:28:31.349Z,25.00
2023-02-06T23:30:59.765Z,25.00
2023-02-06T23:33:28.200Z,25.00
2023-02-06T23:35:56.577Z,25.00
2023-02-06T23:38:24.193Z,25.00
2023-02-06T23:40:51.722Z,25.00
2023-02-06T23:43:20.206Z,25.00
2023-02-06T23:45:47.731Z,25.00
2023-02-06T23:48:15.288Z,24.90
2023-02-06T23:50:42.883Z,24.90
2023-02-06T23:53:11.689Z,24.90
2023-02-06T23:55:40.614Z,24.90
2023-02-06T23:58:08.131Z,24.90
